Weather at Griffith Airport

Public forecast

Using degrees Celsius for public forecast. Weather courtesy of forecast.io.

Closest aviation weather report (METAR) to Griffith Airport

Closest report is Canberra International Airport, 166.8 nm (308.9 km) ESE.

2022/11/27 00:30 (retrieved 34 minutes ago)

YSCB 270030Z AUTO 34009KT 9999 // OVC110 21/12 Q1004

Closest aviation forecast (TAF) to Griffith Airport

Forecast is more than 6 hours old.

Closest forecast is Forrest Airport, 930.2 nm (1,722.7 km) W.

2022/11/26 19:00 Ammendment (retrieved 6 hours ago)

TAF AMD YFRT 261906Z 2619/2708 16005KT CAVOK FM262000 15004KT 9999 SCT010 FM262300 18010KT 9999 SCT025 FM270100 19008KT 9999 SCT045 FM270400 18015G25KT CAVOK